Time;durP1;ratioP1;P1;durP2;ratioP2;P2;SDS_P1;SDS_P2;PMS_P1;PMS_P2;Temp;Humidity;BMP_temperature;BMP_pressure;BME280_temperature;BME280_humidity;BME280_pressure;Samples;Min_cycle;Max_cycle;Signal;HPM_P1;HPM_P2
2021/08/20 00:01:09;;;;;;;10.00;8.70;;;;;;;17.54;63.71;99975.19;109313;1233;137196;-77
2021/08/20 00:08:41;;;;;;;11.50;8.80;;;;;;;17.46;63.91;99978.90;111146;1218;636607;-77
2021/08/20 00:12:50;;;;;;;11.00;8.30;;;;;;;17.43;64.10;99985.05;112293;1200;137991;-77
2021/08/20 00:17:01;;;;;;;11.80;8.90;;;;;;;17.43;64.19;99988.77;112478;1201;93975;-77
2021/08/20 00:21:10;;;;;;;9.80;8.50;;;;;;;17.43;64.32;99987.20;112242;1206;108199;-76
2021/08/20 00:25:19;;;;;;;8.80;7.20;;;;;;;17.40;64.42;99991.02;112078;1206;136658;-78
2021/08/20 00:33:54;;;;;;;9.50;8.60;;;;;;;17.28;64.78;99991.33;111450;1221;136313;-78
2021/08/20 00:37:59;;;;;;;9.80;7.80;;;;;;;17.19;64.80;99991.48;111335;1216;136954;-78
2021/08/20 00:42:05;;;;;;;9.30;8.30;;;;;;;17.10;65.01;99990.71;111025;1225;108026;-77
2021/08/20 00:46:03;;;;;;;10.50;8.80;;;;;;;17.07;65.18;99986.30;111508;1215;635664;-77
2021/08/20 00:58:20;;;;;;;9.40;8.00;;;;;;;16.82;65.71;99989.10;112044;1216;108653;-77
2021/08/20 01:15:01;;;;;;;;;;;;;;;;;;;;;
2021/08/20 01:23:13;;;;;;;9.30;7.90;;;;;;;16.65;66.38;100002.05;111049;1223;656834;-76
2021/08/20 01:27:22;;;;;;;8.90;7.80;;;;;;;16.63;66.63;100007.28;112113;1205;137342;-76
2021/08/20 01:31:31;;;;;;;10.10;8.90;;;;;;;16.61;66.66;100011.10;111841;1212;93956;-76
2021/08/20 01:36:05;;;;;;;10.50;8.70;;;;;;;16.54;66.77;100020.48;111285;1224;107478;-77
2021/08/20 01:40:14;;;;;;;10.40;8.10;;;;;;;16.45;67.04;100020.48;110113;1225;137277;-76
2021/08/20 01:52:42;;;;;;;;;;;;;;;;;;;;;
2021/08/20 01:56:41;;;;;;;9.30;8.30;;;;;;;16.32;67.89;100015.09;112203;1213;94173;-77
2021/08/20 02:00:50;;;;;;;12.90;8.30;;;;;;;16.25;68.05;100009.92;112185;1208;93999;-77
2021/08/20 02:04:48;;;;;;;11.20;9.40;;;;;;;16.17;68.28;100010.02;111897;1218;136540;-77
2021/08/20 02:13:05;;;;;;;10.80;9.00;;;;;;;16.05;68.72;100008.98;111827;1212;108509;-77
2021/08/20 02:33:54;;;;;;;;;;;;;;;;;;;;;
2021/08/20 02:38:05;;;;;;;10.30;8.80;;;;;;;15.81;69.80;100000.94;112328;1210;93937;-77
2021/08/20 02:42:02;;;;;;;;;;;;;;;;;;;;;
2021/08/20 02:46:14;;;;;;;10.90;9.20;;;;;;;15.82;70.06;100002.80;111932;1209;107101;-77
2021/08/20 02:50:22;;;;;;;10.00;9.00;;;;;;;15.79;70.10;100003.30;111831;1211;107115;-78
2021/08/20 02:59:02;;;;;;;10.70;9.50;;;;;;;15.69;70.44;100013.17;110895;1226;93962;-77
2021/08/20 03:07:15;;;;;;;11.70;9.20;;;;;;;15.59;71.00;100013.56;110061;1232;137531;-77
2021/08/20 03:14:49;;;;;;;11.90;10.60;;;;;;;15.58;71.21;100015.71;110960;1224;658380;-76
2021/08/20 03:18:58;;;;;;;11.70;9.60;;;;;;;15.53;71.29;100012.15;111970;1212;137300;-76
2021/08/20 03:27:20;;;;;;;13.10;10.90;;;;;;;15.47;71.55;100009.48;111467;1222;108018;-77
2021/08/20 03:48:23;;;;;;;11.60;10.40;;;;;;;15.52;71.99;100015.52;112109;1206;93873;-76
2021/08/20 03:52:24;;;;;;;;;;;;;;;;;;;;;
2021/08/20 03:56:27;;;;;;;12.30;9.60;;;;;;;15.58;71.93;100015.69;111293;1215;137641;-76
2021/08/20 04:12:45;;;;;;;12.00;10.20;;;;;;;15.66;71.95;100017.23;112002;1219;93904;-76
2021/08/20 04:20:43;;;;;;;14.70;11.80;;;;;;;15.75;72.18;100021.78;111376;1221;635646;-77
2021/08/20 04:24:29;;;;;;;15.00;11.40;;;;;;;15.76;72.01;100026.80;112251;1212;94038;-76
2021/08/20 04:28:37;;;;;;;14.10;11.50;;;;;;;15.81;72.02;100029.17;112462;1198;137388;-76
2021/08/20 04:32:44;;;;;;;15.20;11.00;;;;;;;15.93;71.78;100028.60;112293;1202;137216;-76
2021/08/20 04:36:21;;;;;;;14.30;10.60;;;;;;;15.95;71.79;100027.98;112351;1203;107372;-74
2021/08/20 04:48:40;;;;;;;14.30;10.80;;;;;;;16.82;70.73;100018.27;112259;1212;94096;-76
2021/08/20 04:52:45;;;;;;;;;;;;;;;;;;;;;
2021/08/20 04:56:34;;;;;;;;;;;;;;;;;;;;;
2021/08/20 05:04:53;;;;;;;;;;;;;;;;;;;;;
2021/08/20 05:08:21;;;;;;;12.50;8.20;;;;;;;26.09;55.00;100002.05;111214;1222;94996;-75
2021/08/20 05:11:26;;;;;;;15.00;8.20;;;;;;;27.40;52.33;100000.55;111189;1216;136638;-76
2021/08/20 05:15:15;;;;;;;11.20;8.60;;;;;;;28.74;49.14;99992.20;111491;1214;137736;-77
2021/08/20 05:18:56;;;;;;;12.80;7.90;;;;;;;29.83;46.72;99984.85;111603;1221;109865;-75
2021/08/20 05:23:08;;;;;;;12.00;7.30;;;;;;;30.98;44.25;99986.10;111258;1221;635071;-77
2021/08/20 05:26:01;;;;;;;14.20;6.50;;;;;;;30.74;41.75;99989.77;112511;1206;93871;-78
2021/08/20 05:29:19;;;;;;;;;;;;;;;;;;;;;
2021/08/20 05:32:36;;;;;;;8.10;6.90;;;;;;;29.15;42.84;99992.33;112756;1196;108015;-77
2021/08/20 05:36:12;;;;;;;11.10;9.90;;;;;;;29.57;43.02;99993.25;112671;1204;136527;-77
2021/08/20 05:39:17;;;;;;;8.10;6.20;;;;;;;30.37;41.78;99991.48;112693;1197;137335;-77
2021/08/20 05:43:10;;;;;;;;;;;;;;;;;;;;;
2021/08/20 05:46:24;;;;;;;11.00;6.60;;;;;;;30.70;39.93;99986.46;112637;1204;136448;-78
2021/08/20 05:49:21;;;;;;;6.90;5.90;;;;;;;30.68;39.52;99989.98;112371;1200;107524;-77
2021/08/20 05:52:38;;;;;;;11.80;6.20;;;;;;;29.93;38.83;99991.71;112243;1202;136597;-77
2021/08/20 05:56:36;;;;;;;;;;;;;;;;;;;;;
2021/08/20 06:00:04;;;;;;;9.00;6.70;;;;;;;26.29;42.24;100007.63;112114;1212;136823;-76
2021/08/20 06:03:53;;;;;;;14.30;6.40;;;;;;;25.04;44.05;100011.70;112209;1212;94858;-77
2021/08/20 06:07:33;;;;;;;15.60;7.50;;;;;;;24.03;46.28;100015.66;112249;1205;109520;-76
2021/08/20 06:10:45;;;;;;;12.60;6.40;;;;;;;23.54;47.73;100009.48;112160;1206;137068;-77
2021/08/20 06:14:28;;;;;;;18.00;7.10;;;;;;;23.28;48.83;100015.33;112209;1206;108639;-76
2021/08/20 06:18:10;;;;;;;;;;;;;;;;;;;;;
2021/08/20 06:22:19;;;;;;;12.60;7.10;;;;;;;22.75;50.26;100025.23;112181;1215;94835;-77
2021/08/20 06:25:36;;;;;;;14.40;6.70;;;;;;;22.55;50.89;100025.23;111935;1211;108189;-77
2021/08/20 06:29:29;;;;;;;10.30;6.40;;;;;;;22.53;51.27;100029.26;111964;1208;137126;-77
2021/08/20 06:33:37;;;;;;;14.50;7.10;;;;;;;22.69;51.26;100034.48;112015;1208;108974;-76
2021/08/20 06:37:34;;;;;;;11.90;6.60;;;;;;;23.00;51.40;100038.00;111577;1218;137149;-77
2021/08/20 06:41:15;;;;;;;;;;;;;;;;;;;;;
2021/08/20 06:45:17;;;;;;;;;;;;;;;;;;;;;
2021/08/20 06:49:15;;;;;;;;;;;;;;;;;;;;;
2021/08/20 06:53:50;;;;;;;9.40;6.60;;;;;;;22.58;52.00;100044.07;111133;1222;137261;-76
2021/08/20 06:57:18;;;;;;;;;;;;;;;;;;;;;
2021/08/20 07:00:58;;;;;;;;;;;;;;;;;;;;;
2021/08/20 07:05:06;;;;;;;10.50;6.60;;;;;;;21.49;54.02;100043.80;111817;1218;108669;-77
2021/08/20 07:08:47;;;;;;;;;;;;;;;;;;;;;
2021/08/20 07:12:50;;;;;;;9.80;6.20;;;;;;;21.19;54.76;100047.78;111811;1212;136987;-76
2021/08/20 07:17:00;;;;;;;9.00;6.00;;;;;;;20.90;55.22;100055.18;112234;1206;95035;-76
2021/08/20 07:20:51;;;;;;;7.40;6.00;;;;;;;20.89;55.78;100058.05;112262;1206;95098;-76
2021/08/20 07:24:37;;;;;;;7.90;6.10;;;;;;;20.93;56.03;100063.73;111976;1213;136825;-76
2021/08/20 07:28:16;;;;;;;7.60;5.80;;;;;;;20.88;56.13;100073.18;112258;1212;106161;-76
2021/08/20 07:32:14;;;;;;;9.90;5.90;;;;;;;20.83;56.25;100074.11;112087;1211;137062;-76
2021/08/20 07:36:10;;;;;;;;;;;;;;;;;;;;;
2021/08/20 07:40:12;;;;;;;;;;;;;;;;;;;;;
2021/08/20 07:44:14;;;;;;;;;;;;;;;;;;;;;
2021/08/20 07:48:40;;;;;;;8.30;5.80;;;;;;;20.78;57.00;100089.33;111904;1218;106277;-76
2021/08/20 07:56:20;;;;;;;;;;;;;;;;;;;;;
2021/08/20 07:59:42;;;;;;;;;;;;;;;;;;;;;
2021/08/20 08:06:38;;;;;;;;;;;;;;;;;;;;;
2021/08/20 08:10:06;;;;;;;6.80;6.00;;;;;;;21.23;56.61;100097.00;110785;1226;109643;-76
2021/08/20 08:14:02;;;;;;;8.70;5.80;;;;;;;21.31;56.46;100094.36;110904;1226;136761;-77
2021/08/20 08:18:09;;;;;;;6.30;5.60;;;;;;;21.29;56.57;100093.66;110926;1225;95586;-74
2021/08/20 08:22:03;;;;;;;8.30;5.80;;;;;;;21.36;56.64;100098.08;111116;1223;136932;-75
2021/08/20 08:29:57;;;;;;;9.10;5.60;;;;;;;21.76;56.39;100095.78;111055;1224;108799;-76
2021/08/20 08:33:02;;;;;;;;;;;;;;;;;;;;;
2021/08/20 08:36:40;;;;;;;;;;;;;;;;;;;;;
2021/08/20 08:40:22;;;;;;;;;;;;;;;;;;;;;
2021/08/20 08:44:45;;;;;;;;;;;;;;;;;;;;;
2021/08/20 08:48:23;;;;;;;9.70;4.90;;;;;;;22.97;53.18;100091.48;110879;1226;109415;-76
2021/08/20 08:51:59;;;;;;;6.40;4.20;;;;;;;23.29;53.11;100091.66;111042;1217;136929;-77
2021/08/20 08:55:40;;;;;;;;;;;;;;;;;;;;;
2021/08/20 08:59:48;;;;;;;;;;;;;;;;;;;;;
2021/08/20 09:04:11;;;;;;;;;;;;;;;;;;;;;
2021/08/20 09:07:55;;;;;;;9.30;5.20;;;;;;;23.80;51.54;100096.77;111133;1223;107729;-75
2021/08/20 09:11:28;;;;;;;9.90;4.70;;;;;;;23.70;51.79;100100.52;111146;1218;94982;-76
2021/08/20 09:14:59;;;;;;;6.80;4.40;;;;;;;24.24;51.30;100104.66;110915;1221;137113;-77
2021/08/20 09:22:24;;;;;;;5.20;4.10;;;;;;;25.24;49.01;100104.92;110850;1225;123951;-77
2021/08/20 09:25:53;;;;;;;4.50;3.80;;;;;;;25.43;49.24;100106.13;111475;1219;107627;-76
2021/08/20 09:29:30;;;;;;;5.50;3.70;;;;;;;26.11;48.79;100104.61;111478;1219;94874;-77
2021/08/20 09:32:28;;;;;;;;;;;;;;;;;;;;;
2021/08/20 09:36:05;;;;;;;;;;;;;;;;;;;;;
2021/08/20 09:40:03;;;;;;;4.60;4.00;;;;;;;28.69;44.25;100097.66;111874;1205;137580;-76
2021/08/20 09:46:55;;;;;;;;;;;;;;;;;;;;;
2021/08/20 09:50:37;;;;;;;5.80;4.00;;;;;;;27.72;43.38;100093.27;112369;1208;94816;-77
2021/08/20 09:53:29;;;;;;;5.40;3.70;;;;;;;27.43;43.48;100086.34;112155;1209;136592;-77
2021/08/20 09:57:00;;;;;;;4.40;3.60;;;;;;;27.17;43.92;100092.21;112754;1204;107214;-76
2021/08/20 10:00:09;;;;;;;5.70;3.70;;;;;;;26.73;44.31;100088.17;112835;1205;108588;-78
2021/08/20 10:03:41;;;;;;;5.60;4.40;;;;;;;26.63;44.75;100081.09;112810;1203;94834;-77
2021/08/20 10:07:18;;;;;;;;;;;;;;;;;;;;;
2021/08/20 10:10:48;;;;;;;5.20;4.70;;;;;;;27.23;44.59;100080.75;112513;1205;137599;-77
2021/08/20 10:14:17;;;;;;;;;;;;;;;27.77;44.29;100072.54;112871;1204;107300;-75
2021/08/20 10:17:45;;;;;;;5.20;4.50;;;;;;;28.32;42.89;100072.86;112704;1199;123361;-77
2021/08/20 10:21:12;;;;;;;6.30;4.30;;;;;;;28.84;43.00;100069.02;112812;1204;94941;-77
2021/08/20 10:24:04;;;;;;;5.30;4.00;;;;;;;29.49;41.90;100066.21;112705;1201;136854;-77
2021/08/20 10:27:10;;;;;;;5.10;3.90;;;;;;;29.59;41.33;100059.69;112664;1203;107959;-77
2021/08/20 10:31:11;;;;;;;;;;;;;;;;;;;;;
2021/08/20 10:35:10;;;;;;;10.80;6.30;;;;;;;28.59;41.52;100063.96;112446;1202;107262;-76
2021/08/20 10:39:22;;;;;;;;;;;;;;;;;;;;;
2021/08/20 10:42:49;;;;;;;;;;;;;;;;;;;;;
2021/08/20 10:46:29;;;;;;;;;;;;;;;;;;;;;
2021/08/20 10:50:40;;;;;;;;;;;;;;;;;;;;;
2021/08/20 10:54:28;;;;;;;4.40;3.90;;;;;;;27.53;42.53;100048.84;112033;1205;137240;-76
2021/08/20 10:58:05;;;;;;;6.00;4.20;;;;;;;27.33;42.72;100050.29;112112;1213;95041;-77
2021/08/20 11:01:21;;;;;;;5.50;3.60;;;;;;;27.31;42.24;100051.65;112068;1205;136716;-77
2021/08/20 11:05:32;;;;;;;5.70;3.70;;;;;;;26.76;42.56;100053.87;112176;1205;108453;-76
2021/08/20 11:08:52;;;;;;;5.20;3.80;;;;;;;26.69;43.31;100058.17;112030;1214;107358;-77
2021/08/20 11:12:48;;;;;;;;;;;;;;;;;;;;;
2021/08/20 11:16:21;;;;;;;4.40;4.00;;;;;;;26.75;43.43;100055.70;112229;1208;94989;-76
2021/08/20 11:19:35;;;;;;;5.10;4.30;;;;;;;26.91;43.19;100053.20;112125;1211;137260;-77
2021/08/20 11:23:26;;;;;;;5.80;4.10;;;;;;;27.09;43.19;100052.25;112311;1205;109492;-77
2021/08/20 11:27:27;;;;;;;;;;;;;;;;;;;;;
2021/08/20 11:31:19;;;;;;;4.20;3.80;;;;;;;27.04;42.79;100039.48;112402;1205;137276;-77
2021/08/20 11:35:17;;;;;;;4.70;4.10;;;;;;;27.03;42.96;100037.64;112663;1202;96155;-77
2021/08/20 11:39:02;;;;;;;7.30;4.10;;;;;;;26.92;43.23;100044.88;112690;1198;136912;-77
2021/08/20 11:42:16;;;;;;;6.10;3.90;;;;;;;27.11;42.84;100046.48;112877;1198;110816;-77
2021/08/20 11:45:41;;;;;;;5.90;4.10;;;;;;;27.28;42.85;100041.29;112693;1204;107077;-77
2021/08/20 11:49:08;;;;;;;;;;;;;;;;;;;;;
2021/08/20 11:56:55;;;;;;;5.30;4.40;;;;;;;27.51;42.60;100030.42;112492;1199;137504;-78
2021/08/20 12:00:44;;;;;;;;;;;;;;;;;;;;;
2021/08/20 12:04:16;;;;;;;7.00;4.90;;;;;;;27.71;42.49;100027.82;112157;1214;106497;-77
2021/08/20 12:08:44;;;;;;;;;;;;;;;;;;;;;
2021/08/20 12:11:49;;;;;;;;;;;;;;;;;;;;;
2021/08/20 12:15:42;;;;;;;4.90;4.10;;;;;;;27.39;43.06;100024.52;111505;1221;137300;-75
2021/08/20 12:23:14;;;;;;;5.60;3.40;;;;;;;27.44;41.96;100018.48;111431;1221;108260;-77
2021/08/20 12:26:36;;;;;;;3.60;3.20;;;;;;;27.56;41.95;100012.98;111657;1214;137713;-77
2021/08/20 12:31:06;;;;;;;5.50;3.80;;;;;;;27.44;41.89;100016.07;111591;1214;96512;-79
2021/08/20 12:35:23;;;;;;;4.40;4.00;;;;;;;26.61;42.21;100011.85;111405;1219;137075;-79
2021/08/20 12:38:56;;;;;;;;;;;;;;;;;;;;;
2021/08/20 12:43:07;;;;;;;7.50;4.10;;;;;;;25.95;44.57;100005.21;112000;1212;107342;-79
2021/08/20 12:47:07;;;;;;;;;;;;;;;;;;;;;
2021/08/20 12:50:56;;;;;;;4.40;3.30;;;;;;;26.63;43.23;99998.80;112309;1206;137345;-79
2021/08/20 12:54:51;;;;;;;3.60;3.30;;;;;;;26.59;43.11;99991.95;112344;1209;96186;-77
2021/08/20 12:58:39;;;;;;;5.90;3.20;;;;;;;26.61;42.97;99988.92;112298;1201;137182;-79
2021/08/20 13:02:40;;;;;;;;;;;;;;;;;;;;;
2021/08/20 13:06:15;;;;;;;4.50;3.10;;;;;;;26.72;42.41;99986.09;112264;1212;108646;-79
2021/08/20 13:09:35;;;;;;;;;;;;;;;;;;;;;
2021/08/20 13:13:24;;;;;;;5.10;3.20;;;;;;;26.85;42.42;99983.89;112403;1208;96156;-79
2021/08/20 13:17:03;;;;;;;3.40;2.70;;;;;;;26.86;42.00;99980.21;112143;1211;136000;-78
2021/08/20 13:20:44;;;;;;;4.60;3.00;;;;;;;26.78;42.11;99982.23;112081;1215;106141;-79
2021/08/20 13:24:54;;;;;;;5.20;3.20;;;;;;;26.57;42.48;99985.76;112120;1215;107656;-79
2021/08/20 13:28:53;;;;;;;4.30;3.20;;;;;;;26.28;42.73;99982.30;111683;1212;137075;-79
2021/08/20 13:32:44;;;;;;;5.00;3.10;;;;;;;26.02;43.51;99981.86;111829;1215;96179;-78
2021/08/20 13:36:41;;;;;;;;;;;;;;;;;;;;;
2021/08/20 13:48:50;;;;;;;;;;;;;;;;;;;;;
2021/08/20 13:52:28;;;;;;;7.60;5.00;;;;;;;24.78;46.45;99970.05;110050;1232;137416;-78
2021/08/20 13:56:34;;;;;;;;;;;;;;;;;;;;;
2021/08/20 14:00:58;;;;;;;5.00;4.00;;;;;;;24.49;47.47;99969.11;110397;1228;137833;-79
2021/08/20 14:04:21;;;;;;;;;;;;;;;;;;;;;
2021/08/20 14:08:20;;;;;;;;;;;;;;;;;;;;;
2021/08/20 14:16:44;;;;;;;4.30;3.30;;;;;;;24.76;45.93;99962.59;110059;1232;137364;-79
2021/08/20 14:20:08;;;;;;;;;;;;;;;;;;;;;
2021/08/20 14:28:18;;;;;;;;;;;;;;;;;;;;;
2021/08/20 14:32:22;;;;;;;;;;;;;;;;;;;;;
2021/08/20 14:36:26;;;;;;;;;;;;;;;;;;;;;
2021/08/20 14:45:16;;;;;;;3.80;3.50;;;;;;;24.02;48.12;99967.90;111318;1219;110040;-76
2021/08/20 14:48:55;;;;;;;4.20;3.80;;;;;;;23.99;48.28;99958.96;111219;1213;96305;-77
2021/08/20 14:52:37;;;;;;;;;;;;;;;;;;;;;
2021/08/20 14:56:35;;;;;;;;;;;;;;;;;;;;;
2021/08/20 15:00:26;;;;;;;;;;;;;;;;;;;;;
2021/08/20 15:04:19;;;;;;;7.40;4.20;;;;;;;23.51;48.89;99952.21;111838;1218;107617;-76
2021/08/20 15:08:10;;;;;;;5.40;4.20;;;;;;;23.48;49.12;99950.34;111966;1211;96243;-76
2021/08/20 15:11:54;;;;;;;;;;;;;;;;;;;;;
2021/08/20 15:19:33;;;;;;;;;;;;;;;;;;;;;
2021/08/20 15:27:45;;;;;;;;;;;;;;;;;;;;;
2021/08/20 15:32:00;;;;;;;7.20;3.80;;;;;;;23.03;50.83;99942.88;112004;1209;137098;-77
2021/08/20 15:35:55;;;;;;;;;;;;;;;;;;;;;
2021/08/20 15:39:57;;;;;;;;;;;;;;;;;;;;;
2021/08/20 15:43:38;;;;;;;;;;;;;;;;;;;;;
2021/08/20 15:47:36;;;;;;;;;;;;;;;;;;;;;
2021/08/20 15:51:10;;;;;;;4.20;3.50;;;;;;;22.93;51.38;99947.29;110854;1217;96523;-77
2021/08/20 15:54:48;;;;;;;7.90;4.20;;;;;;;22.91;51.43;99943.03;111019;1224;137070;-77
2021/08/20 15:58:30;;;;;;;;;;;;;;;;;;;;;
2021/08/20 16:06:26;;;;;;;5.40;3.60;;;;;;;22.61;52.01;99940.52;110734;1226;137204;-76
2021/08/20 16:10:06;;;;;;;4.90;3.70;;;;;;;22.56;52.35;99950.56;110411;1223;99685;-76
2021/08/20 16:14:27;;;;;;;7.50;4.30;;;;;;;22.45;52.12;99954.33;110563;1228;137023;-77
2021/08/20 16:18:33;;;;;;;5.20;3.80;;;;;;;22.39;52.32;99964.46;111436;1220;635951;-76
2021/08/20 16:22:33;;;;;;;5.80;4.40;;;;;;;22.29;52.68;99965.98;111992;1210;93908;-76
2021/08/20 16:26:42;;;;;;;7.80;5.20;;;;;;;22.21;53.36;99968.20;111821;1210;135914;-77
2021/08/20 16:30:49;;;;;;;5.40;4.90;;;;;;;22.06;53.97;99973.58;111868;1212;136698;-77
2021/08/20 16:34:48;;;;;;;7.90;5.30;;;;;;;21.84;55.43;99975.44;111565;1214;107472;-77
2021/08/20 16:38:47;;;;;;;;;;;;;;;;;;;;;
2021/08/20 16:43:00;;;;;;;;;;;;;;;;;;;;;
2021/08/20 16:59:48;;;;;;;6.40;5.30;;;;;;;21.24;59.33;99980.71;110087;1229;108332;-76
2021/08/20 17:03:54;;;;;;;6.40;5.60;;;;;;;21.19;59.51;99977.23;110081;1232;136761;-76
2021/08/20 17:08:00;;;;;;;7.60;5.90;;;;;;;20.96;60.09;99977.95;109966;1226;137098;-77
2021/08/20 17:11:30;;;;;;;;;;;;;;;;;;;;;
2021/08/20 17:16:11;;;;;;;7.50;6.20;;;;;;;20.52;61.87;99993.63;109998;1226;136738;-76
2021/08/20 17:20:17;;;;;;;7.30;5.40;;;;;;;20.38;62.26;99996.30;109912;1229;137533;-76
2021/08/20 17:24:10;;;;;;;;;;;;;;;;;;;;;
2021/08/20 17:28:30;;;;;;;6.20;5.20;;;;;;;20.32;62.23;100000.32;109534;1231;136493;-76
2021/08/20 17:39:56;;;;;;;;;;;;;;;;;;;;;
2021/08/20 17:44:26;;;;;;;7.50;5.70;;;;;;;20.12;61.75;100043.46;109692;1227;137212;-77
2021/08/20 17:48:32;;;;;;;8.90;6.40;;;;;;;19.97;62.44;100051.11;109568;1230;94941;-76
2021/08/20 17:52:03;;;;;;;;;;;;;;;;;;;;;
2021/08/20 17:55:56;;;;;;;5.60;4.70;;;;;;;19.71;63.78;100063.24;111410;1220;635521;-77
2021/08/20 18:00:05;;;;;;;6.70;4.60;;;;;;;19.51;64.26;100079.52;112271;1211;94104;-77
2021/08/20 18:03:57;;;;;;;5.50;3.40;;;;;;;19.42;64.79;100087.90;112423;1208;136789;-76
2021/08/20 18:12:13;;;;;;;3.00;2.60;;;;;;;19.02;63.92;100101.64;112192;1214;107143;-77
2021/08/20 18:20:32;;;;;;;2.20;2.00;;;;;;;18.78;64.16;100094.55;111914;1217;136907;-77
2021/08/20 18:25:05;;;;;;;2.50;1.90;;;;;;;18.77;64.07;100096.21;111848;1215;93900;-77
2021/08/20 18:28:38;;;;;;;;;;;;;;;;;;;;;
2021/08/20 18:36:53;;;;;;;3.20;2.50;;;;;;;18.64;64.02;100113.94;110794;1222;109268;-77
2021/08/20 18:44:23;;;;;;;;;;;;;;;;;;;;;
2021/08/20 18:56:56;;;;;;;5.60;3.00;;;;;;;18.12;65.53;100126.38;109677;1235;109353;-77
2021/08/20 19:00:33;;;;;;;;;;;;;;;;;;;;;
2021/08/20 19:08:30;;;;;;;2.10;1.90;;;;;;;17.94;66.32;100125.43;110642;1228;110561;-77
2021/08/20 19:12:18;;;;;;;2.50;2.10;;;;;;;17.91;66.46;100129.88;110642;1222;137182;-77
2021/08/20 19:16:24;;;;;;;5.30;3.20;;;;;;;17.81;66.71;100126.60;110773;1221;137059;-76
2021/08/20 19:28:24;;;;;;;3.10;2.10;;;;;;;17.70;67.80;100124.14;110687;1228;137062;-76
2021/08/20 19:31:54;;;;;;;;;;;;;;;;;;;;;
2021/08/20 19:36:35;;;;;;;2.10;1.90;;;;;;;17.49;68.23;100121.95;111093;1221;137380;-78
2021/08/20 19:44:11;;;;;;;;;;;;;;;;;;;;;
2021/08/20 19:48:42;;;;;;;3.00;2.70;;;;;;;17.33;69.45;100121.36;110774;1225;137124;-76
2021/08/20 19:52:47;;;;;;;3.20;2.50;;;;;;;17.25;69.59;100119.23;110514;1229;137802;-77
2021/08/20 19:56:52;;;;;;;4.70;2.70;;;;;;;17.16;70.02;100122.22;110192;1228;108292;-78
2021/08/20 20:12:37;;;;;;;4.30;3.20;;;;;;;17.26;70.47;100137.11;111418;1221;635010;-77
2021/08/20 20:16:37;;;;;;;;;;;;;;;;;;;;;
2021/08/20 20:20:29;;;;;;;;;;;;;;;;;;;;;
2021/08/20 20:24:39;;;;;;;3.90;3.40;;;;;;;17.14;70.92;100141.37;111875;1214;136849;-75
2021/08/20 20:29:12;;;;;;;5.50;3.60;;;;;;;17.08;71.12;100148.21;111861;1220;137828;-76
2021/08/20 20:33:32;;;;;;;6.10;4.00;;;;;;;17.00;71.35;100149.03;111106;1221;110273;-77
2021/08/20 20:36:57;;;;;;;5.20;4.70;;;;;;;16.83;71.53;100153.17;110381;1225;93981;-76
2021/08/20 20:45:28;;;;;;;4.20;3.80;;;;;;;16.54;72.32;100152.61;109996;1234;109774;-77
2021/08/20 20:49:25;;;;;;;;;;;;;;;;;;;;;
2021/08/20 20:53:35;;;;;;;;;;;;;;;;;;;;;
2021/08/20 20:57:46;;;;;;;6.30;4.90;;;;;;;16.24;73.37;100153.48;111957;1216;93899;-76
2021/08/20 21:02:18;;;;;;;6.40;5.00;;;;;;;16.15;73.81;100161.19;111910;1217;136696;-76
2021/08/20 21:06:04;;;;;;;;;;;;;;;;;;;;;
2021/08/20 21:10:19;;;;;;;8.20;5.10;;;;;;;16.12;74.13;100172.05;110424;1230;108068;-77
2021/08/20 21:13:35;;;;;;;6.00;5.00;;;;;;;16.09;74.30;100172.20;110334;1225;137305;-76
2021/08/20 21:17:44;;;;;;;6.50;5.30;;;;;;;16.05;74.47;100174.75;113536;1201;137672;-77
2021/08/20 21:21:34;;;;;;;6.10;5.10;;;;;;;15.96;74.72;100180.67;113479;1204;108076;-76
2021/08/20 21:25:22;;;;;;;;;;;;;;;15.94;74.85;100170.94;113390;1204;137997;-76
2021/08/20 21:29:13;;;;;;;7.20;5.50;;;;;;;15.96;75.04;100170.67;113449;1203;107550;-77
2021/08/20 21:32:41;;;;;;;7.00;6.20;;;;;;;15.92;75.05;100177.20;113418;1205;92774;-76
2021/08/20 21:36:39;;;;;;;;;;;;;;;;;;;;;
2021/08/20 21:40:25;;;;;;;8.50;6.40;;;;;;;15.89;75.35;100184.05;113471;1203;110017;-76
2021/08/20 21:48:36;;;;;;;8.60;6.80;;;;;;;15.94;75.30;100184.08;113340;1205;137874;-77
2021/08/20 21:52:27;;;;;;;10.10;7.70;;;;;;;15.93;75.27;100187.14;113466;1205;92746;-77
2021/08/20 22:16:57;;;;;;;;;;;;;;;;;;;;;
2021/08/20 22:21:08;;;;;;;10.60;8.40;;;;;;;15.87;75.05;100181.17;112265;1208;137234;-76
2021/08/20 22:25:17;;;;;;;10.60;8.50;;;;;;;15.84;75.12;100187.15;112073;1213;137200;-77
2021/08/20 22:42:18;;;;;;;10.80;8.10;;;;;;;15.64;75.36;100204.18;110217;1230;94278;-77
2021/08/20 22:53:57;;;;;;;12.10;9.00;;;;;;;15.53;75.97;100211.75;111494;1214;636566;-76
2021/08/20 22:58:05;;;;;;;11.60;7.90;;;;;;;15.46;75.96;100214.38;112424;1205;136569;-77
2021/08/20 23:02:13;;;;;;;11.10;8.50;;;;;;;15.42;76.08;100214.71;112210;1211;137654;-77
2021/08/20 23:06:01;;;;;;;10.00;7.50;;;;;;;15.39;76.03;100210.16;112246;1205;107150;-77
2021/08/20 23:14:19;;;;;;;10.80;8.50;;;;;;;15.39;76.31;100212.98;111987;1208;137220;-77
2021/08/20 23:23:16;;;;;;;9.90;7.70;;;;;;;15.32;76.63;100209.48;111599;1218;94617;-77
2021/08/20 23:27:08;;;;;;;;;;;;;;;;;;;;;
2021/08/20 23:43:45;;;;;;;11.60;8.10;;;;;;;15.49;76.97;100215.27;110168;1231;94881;-77
2021/08/20 23:47:51;;;;;;;10.40;8.60;;;;;;;15.55;76.90;100216.33;109751;1234;137022;-77
2021/08/20 23:56:02;;;;;;;14.40;10.20;;;;;;;15.62;77.04;100217.92;111415;1221;635840;-77
